createdAt,value
2022-08-03T00:00:01.985Z,998.77
2022-08-03T00:01:01.945Z,998.80
2022-08-03T00:02:01.936Z,998.79
2022-08-03T00:03:01.974Z,998.79
2022-08-03T00:04:01.917Z,998.73
2022-08-03T00:05:01.908Z,998.73
2022-08-03T00:06:03.696Z,998.73
2022-08-03T00:07:01.888Z,998.67
2022-08-03T00:08:01.875Z,998.66
2022-08-03T00:09:01.866Z,998.70
2022-08-03T00:10:01.849Z,998.69
2022-08-03T00:11:01.852Z,998.71
2022-08-03T00:12:01.847Z,998.66
2022-08-03T00:13:01.826Z,998.68
2022-08-03T00:14:01.810Z,998.62
2022-08-03T00:15:01.798Z,998.65
2022-08-03T00:16:01.789Z,998.62
2022-08-03T00:17:01.830Z,998.62
2022-08-03T00:18:01.768Z,998.64
2022-08-03T00:19:02.220Z,998.69
2022-08-03T00:20:01.746Z,998.72
2022-08-03T00:21:01.728Z,998.68
2022-08-03T00:22:01.727Z,998.68
2022-08-03T00:23:01.749Z,998.69
2022-08-03T00:24:01.701Z,998.66
2022-08-03T00:25:01.693Z,998.70
2022-08-03T00:26:01.681Z,998.67
2022-08-03T00:27:01.668Z,998.67
2022-08-03T00:28:01.658Z,998.69
2022-08-03T00:29:01.669Z,998.66
2022-08-03T00:30:01.640Z,998.67
2022-08-03T00:31:01.629Z,998.67
2022-08-03T00:32:01.609Z,998.68
2022-08-03T00:33:01.608Z,998.66
2022-08-03T00:34:03.565Z,998.67
2022-08-03T00:35:07.857Z,998.69
2022-08-03T00:36:02.568Z,998.66
2022-08-03T00:37:01.570Z,998.70
2022-08-03T00:38:01.571Z,998.70
2022-08-03T00:39:01.541Z,998.72
2022-08-03T00:40:01.563Z,998.75
2022-08-03T00:41:01.518Z,998.67
2022-08-03T00:42:01.501Z,998.70
2022-08-03T00:43:01.498Z,998.71
2022-08-03T00:44:01.486Z,998.74
2022-08-03T00:45:01.470Z,998.68
2022-08-03T00:46:01.481Z,998.67
2022-08-03T00:47:01.451Z,998.69
2022-08-03T00:48:01.444Z,998.68
2022-08-03T00:49:01.522Z,998.67
2022-08-03T00:50:01.420Z,998.68
2022-08-03T00:51:01.433Z,998.66
2022-08-03T00:52:01.400Z,998.68
2022-08-03T00:53:02.390Z,998.70
2022-08-03T00:54:01.381Z,998.69
2022-08-03T00:55:01.365Z,998.66
2022-08-03T00:56:01.353Z,998.64
2022-08-03T00:57:01.373Z,998.66
2022-08-03T00:58:01.333Z,998.71
2022-08-03T00:59:01.329Z,998.63
2022-08-03T01:00:01.323Z,998.70
2022-08-03T01:01:01.366Z,998.67
2022-08-03T01:02:01.292Z,998.62
2022-08-03T01:03:01.293Z,998.67
2022-08-03T01:04:01.276Z,998.70
2022-08-03T01:05:01.263Z,998.69
2022-08-03T01:06:01.247Z,998.73
2022-08-03T01:07:01.233Z,998.74
2022-08-03T01:08:01.244Z,998.76
2022-08-03T01:09:01.213Z,998.78
2022-08-03T01:10:01.204Z,998.75
2022-08-03T01:11:01.192Z,998.74
2022-08-03T01:12:01.815Z,998.75
2022-08-03T01:13:01.302Z,998.71
2022-08-03T01:14:17.966Z,998.70
2022-08-03T01:15:02.144Z,998.70
2022-08-03T01:16:01.137Z,998.66
2022-08-03T01:17:01.126Z,998.69
2022-08-03T01:18:01.114Z,998.72
2022-08-03T01:19:01.102Z,998.70
2022-08-03T01:20:01.872Z,998.65
2022-08-03T01:21:01.087Z,998.66
2022-08-03T01:22:01.065Z,998.69
2022-08-03T01:23:01.064Z,998.67
2022-08-03T01:24:01.036Z,998.65
2022-08-03T01:25:01.035Z,998.63
2022-08-03T01:26:01.045Z,998.60
2022-08-03T01:27:01.005Z,998.59
2022-08-03T01:28:00.996Z,998.68
2022-08-03T01:29:00.989Z,998.61
2022-08-03T01:30:00.975Z,998.66
2022-08-03T01:31:00.964Z,998.56
2022-08-03T01:32:53.269Z,998.62
2022-08-03T01:33:02.169Z,998.61
2022-08-03T01:34:01.024Z,998.59
2022-08-03T01:35:00.929Z,998.63
2022-08-03T01:36:00.905Z,998.57
2022-08-03T01:37:00.900Z,998.58
2022-08-03T01:38:00.905Z,998.61
2022-08-03T01:39:00.876Z,998.63
2022-08-03T01:40:00.857Z,998.68
2022-08-03T01:41:00.877Z,998.64
2022-08-03T01:42:00.837Z,998.56
2022-08-03T01:43:00.826Z,998.61
2022-08-03T01:44:29.220Z,998.59
2022-08-03T01:45:01.808Z,998.57
2022-08-03T01:46:00.796Z,998.55
2022-08-03T01:47:00.785Z,998.63
2022-08-03T01:48:00.767Z,998.56
2022-08-03T01:49:00.976Z,998.61
2022-08-03T01:50:01.766Z,998.58
2022-08-03T01:51:00.739Z,998.58
2022-08-03T01:52:05.011Z,998.58
2022-08-03T01:53:00.716Z,998.58
2022-08-03T01:54:00.697Z,998.54
2022-08-03T01:55:00.697Z,998.57
2022-08-03T01:56:00.697Z,998.53
2022-08-03T01:57:00.677Z,998.58
2022-08-03T01:58:04.588Z,998.50
2022-08-03T01:59:01.648Z,998.54
2022-08-03T02:00:00.627Z,998.54
2022-08-03T02:01:00.746Z,998.55
2022-08-03T02:02:15.399Z,998.54
2022-08-03T02:03:01.626Z,998.52
2022-08-03T02:04:01.267Z,998.56
2022-08-03T02:05:00.578Z,998.51
2022-08-03T02:06:11.734Z,998.55
2022-08-03T02:07:03.318Z,998.53
2022-08-03T02:08:00.539Z,998.53
2022-08-03T02:09:00.529Z,998.52
2022-08-03T02:10:00.520Z,998.53
2022-08-03T02:11:00.510Z,998.56
2022-08-03T02:12:00.526Z,998.50
2022-08-03T02:13:00.508Z,998.55
2022-08-03T02:14:00.469Z,998.54
2022-08-03T02:15:00.945Z,998.49
2022-08-03T02:16:00.449Z,998.49
2022-08-03T02:17:00.439Z,998.54
2022-08-03T02:18:00.446Z,998.51
2022-08-03T02:19:00.417Z,998.53
2022-08-03T02:20:00.400Z,998.50
2022-08-03T02:21:00.398Z,998.49
2022-08-03T02:22:01.277Z,998.49
2022-08-03T02:23:00.374Z,998.55
2022-08-03T02:24:00.369Z,998.51
2022-08-03T02:25:00.380Z,998.51
2022-08-03T02:26:00.330Z,998.49
2022-08-03T02:27:00.327Z,998.53
2022-08-03T02:28:00.314Z,998.49
2022-08-03T02:29:00.330Z,998.49
2022-08-03T02:30:00.291Z,998.46
2022-08-03T02:31:01.019Z,998.52
2022-08-03T02:32:00.261Z,998.49
2022-08-03T02:33:00.354Z,998.54
2022-08-03T02:34:00.255Z,998.52
2022-08-03T02:35:00.250Z,998.51
2022-08-03T02:36:00.303Z,998.54
2022-08-03T02:37:00.218Z,998.54
2022-08-03T02:38:00.199Z,998.53
2022-08-03T02:39:00.200Z,998.48
2022-08-03T02:40:00.191Z,998.45
2022-08-03T02:41:00.179Z,998.50
2022-08-03T02:42:00.175Z,998.48
2022-08-03T02:43:00.150Z,998.49
2022-08-03T02:44:06.472Z,998.47
2022-08-03T02:45:01.172Z,998.47
2022-08-03T02:46:00.111Z,998.49
2022-08-03T02:47:00.214Z,998.47
2022-08-03T02:48:00.083Z,998.47
2022-08-03T02:49:00.114Z,998.45
2022-08-03T02:50:01.095Z,998.44
2022-08-03T02:51:00.282Z,998.46
2022-08-03T02:52:00.043Z,998.45
2022-08-03T02:53:00.032Z,998.43
2022-08-03T02:54:00.020Z,998.49
2022-08-03T02:55:00.006Z,998.39
2022-08-03T02:55:59.999Z,998.41
2022-08-03T02:57:00.012Z,998.44
2022-08-03T02:58:01.422Z,998.42
2022-08-03T02:58:59.962Z,998.42
2022-08-03T02:59:59.952Z,998.40
2022-08-03T03:00:59.971Z,998.42
2022-08-03T03:01:59.943Z,998.41
2022-08-03T03:03:00.316Z,998.40
2022-08-03T03:03:59.909Z,998.40
2022-08-03T03:05:54.984Z,998.45
2022-08-03T03:06:00.943Z,998.36
2022-08-03T03:06:59.873Z,998.36
2022-08-03T03:07:59.873Z,998.40
2022-08-03T03:09:00.047Z,998.35
2022-08-03T03:09:59.836Z,998.37
2022-08-03T03:10:59.823Z,998.37
2022-08-03T03:11:59.811Z,998.40
2022-08-03T03:12:59.833Z,998.39
2022-08-03T03:13:59.836Z,998.41
2022-08-03T03:14:59.783Z,998.41
2022-08-03T03:15:59.774Z,998.41
2022-08-03T03:16:59.753Z,998.38
2022-08-03T03:17:59.743Z,998.37
2022-08-03T03:18:59.754Z,998.35
2022-08-03T03:19:59.725Z,998.38
2022-08-03T03:20:59.713Z,998.38
2022-08-03T03:21:59.695Z,998.38
2022-08-03T03:22:59.698Z,998.35
2022-08-03T03:23:59.742Z,998.38
2022-08-03T03:25:00.424Z,998.38
2022-08-03T03:25:59.655Z,998.38
2022-08-03T03:26:59.644Z,998.34
2022-08-03T03:27:59.633Z,998.40
2022-08-03T03:28:59.625Z,998.32
2022-08-03T03:29:59.604Z,998.34
2022-08-03T03:30:59.615Z,998.44
2022-08-03T03:31:59.585Z,998.44
2022-08-03T03:32:59.580Z,998.44
2022-08-03T03:33:59.565Z,998.43
2022-08-03T03:34:59.553Z,998.46
2022-08-03T03:35:59.567Z,998.47
2022-08-03T03:36:59.527Z,998.48
2022-08-03T03:37:59.514Z,998.47
2022-08-03T03:38:59.518Z,998.40
2022-08-03T03:40:00.495Z,998.42
2022-08-03T03:40:59.487Z,998.45
2022-08-03T03:41:59.486Z,998.46
2022-08-03T03:42:59.465Z,998.43
2022-08-03T03:44:06.491Z,998.48
2022-08-03T03:44:59.483Z,998.47
2022-08-03T03:45:59.422Z,998.45
2022-08-03T03:46:59.422Z,998.42
2022-08-03T03:47:59.432Z,998.41
2022-08-03T03:48:59.422Z,998.43
2022-08-03T03:49:59.422Z,998.45
2022-08-03T03:50:59.372Z,998.43
2022-08-03T03:51:59.361Z,998.48
2022-08-03T03:52:59.353Z,998.49
2022-08-03T03:53:59.353Z,998.44
2022-08-03T03:55:01.214Z,998.47
2022-08-03T03:56:02.411Z,998.48
2022-08-03T03:56:59.302Z,998.45
2022-08-03T03:57:59.290Z,998.42
2022-08-03T03:58:59.324Z,998.44
2022-08-03T03:59:59.263Z,998.47
2022-08-03T04:00:59.311Z,998.47
2022-08-03T04:01:59.457Z,998.51
2022-08-03T04:02:59.233Z,998.41
2022-08-03T04:03:59.223Z,998.48
2022-08-03T04:04:59.243Z,998.48
2022-08-03T04:05:59.203Z,998.43
2022-08-03T04:06:59.192Z,998.39
2022-08-03T04:07:59.174Z,998.40
2022-08-03T04:08:59.162Z,998.42
2022-08-03T04:09:59.260Z,998.45
2022-08-03T04:11:00.165Z,998.44
2022-08-03T04:11:59.137Z,998.40
2022-08-03T04:12:59.124Z,998.42
2022-08-03T04:14:02.059Z,998.48
2022-08-03T04:14:59.103Z,998.51
2022-08-03T04:15:59.091Z,998.49
2022-08-03T04:16:59.108Z,998.41
2022-08-03T04:17:59.074Z,998.45
2022-08-03T04:18:59.521Z,998.43
2022-08-03T04:19:59.054Z,998.44
2022-08-03T04:20:59.036Z,998.44
2022-08-03T04:21:59.023Z,998.36
2022-08-03T04:22:59.026Z,998.42
2022-08-03T04:23:59.003Z,998.41
2022-08-03T04:24:58.984Z,998.36
2022-08-03T04:25:58.984Z,998.38
2022-08-03T04:26:58.965Z,998.39
2022-08-03T04:28:28.294Z,998.43
2022-08-03T04:28:59.944Z,998.46
2022-08-03T04:29:58.934Z,998.49
2022-08-03T04:30:58.928Z,998.47
2022-08-03T04:31:58.905Z,998.45
2022-08-03T04:32:58.894Z,998.47
2022-08-03T04:33:58.907Z,998.48
2022-08-03T04:34:58.875Z,998.48
2022-08-03T04:36:02.557Z,998.45
2022-08-03T04:36:58.846Z,998.44
2022-08-03T04:37:58.836Z,998.41
2022-08-03T04:38:58.833Z,998.46
2022-08-03T04:39:58.837Z,998.49
2022-08-03T04:40:58.809Z,998.51
2022-08-03T04:42:07.284Z,998.48
2022-08-03T04:42:59.787Z,998.48
2022-08-03T04:43:58.778Z,998.51
2022-08-03T04:45:01.338Z,998.54
2022-08-03T04:45:58.776Z,998.52
2022-08-03T04:46:58.739Z,998.52
2022-08-03T04:47:58.728Z,998.52
2022-08-03T04:48:58.741Z,998.50
2022-08-03T04:49:58.707Z,998.55
2022-08-03T04:50:58.696Z,998.54
2022-08-03T04:51:58.698Z,998.50
2022-08-03T04:52:58.676Z,998.53
2022-08-03T04:53:58.666Z,998.49
2022-08-03T04:54:58.651Z,998.55
2022-08-03T04:55:59.277Z,998.58
2022-08-03T04:56:58.648Z,998.55
2022-08-03T04:57:59.459Z,998.59
2022-08-03T04:58:58.599Z,998.59
2022-08-03T05:00:03.004Z,998.60
2022-08-03T05:00:59.586Z,998.61
2022-08-03T05:01:58.777Z,998.58
2022-08-03T05:02:58.579Z,998.61
2022-08-03T05:03:58.548Z,998.61
2022-08-03T05:04:58.539Z,998.62
2022-08-03T05:06:01.694Z,998.60
2022-08-03T05:06:59.509Z,998.68
2022-08-03T05:08:00.753Z,998.73
2022-08-03T05:08:58.488Z,998.66
2022-08-03T05:10:02.943Z,998.69
2022-08-03T05:10:59.574Z,998.69
2022-08-03T05:11:58.458Z,998.71
2022-08-03T05:12:58.439Z,998.71
2022-08-03T05:13:58.451Z,998.68
2022-08-03T05:14:58.418Z,998.70
2022-08-03T05:15:58.410Z,998.72
2022-08-03T05:16:58.399Z,998.73
2022-08-03T05:17:58.390Z,998.71
2022-08-03T05:18:58.399Z,998.74
2022-08-03T05:19:58.423Z,998.75
2022-08-03T05:20:58.369Z,998.71
2022-08-03T05:21:58.339Z,998.70
2022-08-03T05:22:58.339Z,998.77
2022-08-03T05:23:58.330Z,998.66
2022-08-03T05:24:58.322Z,998.74
2022-08-03T05:25:58.301Z,998.71
2022-08-03T05:26:58.290Z,998.70
2022-08-03T05:27:58.279Z,998.69
2022-08-03T05:28:58.261Z,998.70
2022-08-03T05:30:30.907Z,998.73
2022-08-03T05:30:59.240Z,998.66
2022-08-03T05:31:58.231Z,998.70
2022-08-03T05:32:58.222Z,998.70
2022-08-03T05:33:58.209Z,998.76
2022-08-03T05:34:58.211Z,998.73
2022-08-03T05:36:03.538Z,998.78
2022-08-03T05:36:59.172Z,998.80
2022-08-03T05:37:58.163Z,998.76
2022-08-03T05:39:02.489Z,998.79
2022-08-03T05:39:58.154Z,998.71
2022-08-03T05:41:22.581Z,998.75
2022-08-03T05:41:59.152Z,998.77
2022-08-03T05:42:58.113Z,998.71
2022-08-03T05:43:58.109Z,998.74
2022-08-03T05:44:58.083Z,998.70
2022-08-03T05:46:11.437Z,998.72
2022-08-03T05:46:59.063Z,998.71
2022-08-03T05:47:58.082Z,998.73
2022-08-03T05:48:58.106Z,998.76
2022-08-03T05:49:58.034Z,998.78
2022-08-03T05:50:58.013Z,998.77
2022-08-03T05:52:00.493Z,998.81
2022-08-03T05:52:59.022Z,998.79
2022-08-03T05:53:57.986Z,998.86
2022-08-03T05:54:57.985Z,998.76
2022-08-03T05:56:02.349Z,998.78
2022-08-03T05:56:58.944Z,998.82
2022-08-03T05:57:57.934Z,998.77
2022-08-03T05:58:57.945Z,998.86
2022-08-03T05:59:58.618Z,998.86
2022-08-03T06:00:57.904Z,998.80
2022-08-03T06:01:57.941Z,998.84
2022-08-03T06:02:57.875Z,998.77
2022-08-03T06:03:57.875Z,998.84
2022-08-03T06:04:57.905Z,998.90
2022-08-03T06:06:00.395Z,998.79
2022-08-03T06:06:57.848Z,998.85
2022-08-03T06:07:57.827Z,998.90
2022-08-03T06:08:57.816Z,998.95
2022-08-03T06:10:36.387Z,998.89
2022-08-03T06:10:58.808Z,998.94
2022-08-03T06:11:57.800Z,998.90
2022-08-03T06:12:57.770Z,998.97
2022-08-03T06:13:57.767Z,998.88
2022-08-03T06:14:57.762Z,998.95
2022-08-03T06:15:57.768Z,999.03
2022-08-03T06:16:57.729Z,998.97
2022-08-03T06:18:01.516Z,998.98
2022-08-03T06:18:57.713Z,998.98
2022-08-03T06:19:57.712Z,999.00
2022-08-03T06:20:57.691Z,998.98
2022-08-03T06:21:58.699Z,999.05
2022-08-03T06:23:00.308Z,999.07
2022-08-03T06:23:57.650Z,999.03
2022-08-03T06:24:57.640Z,999.03
2022-08-03T06:25:57.630Z,999.06
2022-08-03T06:26:57.621Z,999.11
2022-08-03T06:27:57.631Z,999.06
2022-08-03T06:28:57.606Z,999.06
2022-08-03T06:29:57.596Z,999.02
2022-08-03T06:30:57.581Z,998.99
2022-08-03T06:31:57.570Z,999.02
2022-08-03T06:32:57.573Z,999.00
2022-08-03T06:34:33.480Z,999.05
2022-08-03T06:34:58.535Z,998.95
2022-08-03T06:35:57.533Z,998.95
2022-08-03T06:37:01.790Z,998.99
2022-08-03T06:37:57.514Z,999.02
2022-08-03T06:38:57.512Z,999.03
2022-08-03T06:39:57.486Z,999.06
2022-08-03T06:40:57.474Z,999.11
2022-08-03T06:41:57.463Z,999.01
2022-08-03T06:42:57.462Z,999.13
2022-08-03T06:44:03.829Z,999.11
2022-08-03T06:44:58.427Z,999.15
2022-08-03T06:45:57.426Z,999.15
2022-08-03T06:46:57.406Z,999.10
2022-08-03T06:47:57.397Z,999.14
2022-08-03T06:48:57.472Z,999.14
2022-08-03T06:50:17.020Z,999.12
2022-08-03T06:50:58.366Z,999.11
2022-08-03T06:52:04.631Z,999.13
2022-08-03T06:52:58.349Z,999.19
2022-08-03T06:53:57.338Z,999.17
2022-08-03T06:54:57.327Z,999.14
2022-08-03T06:55:57.339Z,999.14
2022-08-03T06:56:57.300Z,999.17
2022-08-03T06:57:59.942Z,999.23
2022-08-03T06:58:58.301Z,999.22
2022-08-03T07:00:06.231Z,999.21
2022-08-03T07:00:58.344Z,999.27
2022-08-03T07:01:57.251Z,999.26
2022-08-03T07:02:58.514Z,999.19
2022-08-03T07:03:57.232Z,999.20
2022-08-03T07:04:57.239Z,999.26
2022-08-03T07:05:57.214Z,999.28
2022-08-03T07:06:57.221Z,999.24
2022-08-03T07:07:57.193Z,999.25
2022-08-03T07:08:59.551Z,999.22
2022-08-03T07:09:58.185Z,999.21
2022-08-03T07:10:57.161Z,999.24
2022-08-03T07:11:57.181Z,999.30
2022-08-03T07:12:57.150Z,999.30
2022-08-03T07:13:57.135Z,999.24
2022-08-03T07:15:00.653Z,999.26
2022-08-03T07:15:57.125Z,999.32
2022-08-03T07:16:57.095Z,999.33
2022-08-03T07:17:57.117Z,999.27
2022-08-03T07:18:57.080Z,999.35
2022-08-03T07:19:57.102Z,999.34
2022-08-03T07:20:57.069Z,999.40
2022-08-03T07:22:02.073Z,999.33
2022-08-03T07:22:58.057Z,999.32
2022-08-03T07:23:57.029Z,999.35
2022-08-03T07:24:57.018Z,999.42
2022-08-03T07:25:57.010Z,999.42
2022-08-03T07:26:56.991Z,999.37
2022-08-03T07:27:56.989Z,999.45
2022-08-03T07:28:57.005Z,999.45
2022-08-03T07:29:56.969Z,999.42
2022-08-03T07:30:56.958Z,999.42
2022-08-03T07:31:56.950Z,999.35
2022-08-03T07:32:56.940Z,999.41
2022-08-03T07:33:56.951Z,999.40
2022-08-03T07:35:00.625Z,999.37
2022-08-03T07:35:56.910Z,999.38
2022-08-03T07:36:56.892Z,999.46
2022-08-03T07:37:56.890Z,999.38
2022-08-03T07:38:56.882Z,999.41
2022-08-03T07:39:57.285Z,999.40
2022-08-03T07:40:56.855Z,999.31
2022-08-03T07:41:56.852Z,999.34
2022-08-03T07:42:56.834Z,999.33
2022-08-03T07:43:56.834Z,999.33
2022-08-03T07:44:56.815Z,999.40
2022-08-03T07:45:56.834Z,999.36
2022-08-03T07:46:56.807Z,999.43
2022-08-03T07:47:56.784Z,999.43
2022-08-03T07:48:56.838Z,999.38
2022-08-03T07:49:56.773Z,999.39
2022-08-03T07:50:56.760Z,999.40
2022-08-03T07:51:56.777Z,999.36
2022-08-03T07:52:56.739Z,999.40
2022-08-03T07:53:56.736Z,999.44
2022-08-03T07:54:56.728Z,999.43
2022-08-03T07:55:56.716Z,999.41
2022-08-03T07:56:56.698Z,999.45
2022-08-03T07:57:56.827Z,999.43
2022-08-03T07:58:56.678Z,999.46
2022-08-03T08:00:02.162Z,999.43
2022-08-03T08:00:57.728Z,999.49
2022-08-03T08:01:56.667Z,999.47
2022-08-03T08:02:56.647Z,999.51
2022-08-03T08:03:56.651Z,999.49
2022-08-03T08:04:56.633Z,999.47
2022-08-03T08:05:56.617Z,999.45
2022-08-03T08:06:56.600Z,999.50
2022-08-03T08:07:56.603Z,999.52
2022-08-03T08:08:56.601Z,999.45
2022-08-03T08:09:56.584Z,999.46
2022-08-03T08:10:57.876Z,999.47
2022-08-03T08:11:56.561Z,999.46
2022-08-03T08:12:56.543Z,999.45
2022-08-03T08:13:56.542Z,999.45
2022-08-03T08:14:56.540Z,999.41
2022-08-03T08:15:56.524Z,999.41
2022-08-03T08:16:56.510Z,999.40
2022-08-03T08:17:56.503Z,999.44
2022-08-03T08:18:56.483Z,999.38
2022-08-03T08:19:56.504Z,999.33
2022-08-03T08:20:56.466Z,999.38
2022-08-03T08:22:02.303Z,999.43
2022-08-03T08:22:57.444Z,999.37
2022-08-03T08:23:57.835Z,999.32
2022-08-03T08:24:56.426Z,999.29
2022-08-03T08:25:56.443Z,999.33
2022-08-03T08:26:56.415Z,999.29
2022-08-03T08:28:31.034Z,999.26
2022-08-03T08:28:57.393Z,999.23
2022-08-03T08:30:00.568Z,999.31
2022-08-03T08:30:57.386Z,999.29
2022-08-03T08:31:56.368Z,999.27
2022-08-03T08:32:56.357Z,999.27
2022-08-03T08:34:04.769Z,999.27
2022-08-03T08:34:57.339Z,999.23
2022-08-03T08:35:56.318Z,999.25
2022-08-03T08:36:56.369Z,999.26
2022-08-03T08:37:56.308Z,999.24
2022-08-03T08:38:56.299Z,999.26
2022-08-03T08:39:56.289Z,999.27
2022-08-03T08:40:56.281Z,999.24
2022-08-03T08:41:56.261Z,999.23
2022-08-03T08:42:58.871Z,999.15
2022-08-03T08:43:59.957Z,999.30
2022-08-03T08:44:56.239Z,999.26
2022-08-03T08:45:56.232Z,999.24
2022-08-03T08:46:56.232Z,999.21
2022-08-03T08:48:00.827Z,999.24
2022-08-03T08:48:57.274Z,999.23
2022-08-03T08:50:09.365Z,999.28
2022-08-03T08:50:57.182Z,999.23
2022-08-03T08:52:00.884Z,999.18
2022-08-03T08:52:57.160Z,999.24
2022-08-03T08:53:56.175Z,999.20
2022-08-03T08:54:56.146Z,999.24
2022-08-03T08:55:57.904Z,999.24
2022-08-03T08:56:56.122Z,999.19
2022-08-03T08:57:56.105Z,999.18
2022-08-03T08:58:56.103Z,999.23
2022-08-03T08:59:57.375Z,999.22
2022-08-03T09:00:56.094Z,999.16
2022-08-03T09:01:56.065Z,999.18
2022-08-03T09:02:56.066Z,999.17
2022-08-03T09:03:56.045Z,999.21
2022-08-03T09:04:56.047Z,999.16
2022-08-03T09:05:56.479Z,999.24
2022-08-03T09:07:18.771Z,999.22
2022-08-03T09:07:57.006Z,999.17
2022-08-03T09:08:56.009Z,999.21
2022-08-03T09:10:11.239Z,999.16
2022-08-03T09:10:57.008Z,999.30
2022-08-03T09:12:09.011Z,999.27
2022-08-03T09:12:57.390Z,999.30
2022-08-03T09:13:55.958Z,999.19
2022-08-03T09:15:15.869Z,999.25
2022-08-03T09:16:00.775Z,999.19
2022-08-03T09:16:55.950Z,999.26
2022-08-03T09:17:55.912Z,999.27
2022-08-03T09:18:55.919Z,999.27
2022-08-03T09:20:03.540Z,999.21
2022-08-03T09:20:56.890Z,999.19
2022-08-03T09:21:55.881Z,999.22
2022-08-03T09:22:55.891Z,999.15
2022-08-03T09:24:01.436Z,999.17
2022-08-03T09:25:21.664Z,999.15
2022-08-03T09:25:56.842Z,999.20
2022-08-03T09:26:55.832Z,999.16
2022-08-03T09:27:55.851Z,999.15
2022-08-03T09:29:02.581Z,999.12
2022-08-03T09:29:56.803Z,999.16
2022-08-03T09:30:55.801Z,999.14
2022-08-03T09:31:55.802Z,999.19
2022-08-03T09:32:55.784Z,999.19
2022-08-03T09:33:55.792Z,999.16
2022-08-03T09:34:58.199Z,999.13
2022-08-03T09:35:57.771Z,999.20
2022-08-03T09:36:55.979Z,999.17
2022-08-03T09:38:12.251Z,999.15
2022-08-03T09:38:56.745Z,999.15
2022-08-03T09:39:55.714Z,999.13
2022-08-03T09:40:59.559Z,999.12
2022-08-03T09:41:55.694Z,999.16
2022-08-03T09:42:55.685Z,999.19
2022-08-03T09:43:55.674Z,999.18
2022-08-03T09:45:02.733Z,999.17
2022-08-03T09:45:55.655Z,999.12
2022-08-03T09:46:55.665Z,999.09
2022-08-03T09:47:55.645Z,999.13
2022-08-03T09:48:55.654Z,999.12
2022-08-03T09:49:55.639Z,999.10
2022-08-03T09:50:58.421Z,999.12
2022-08-03T09:52:33.144Z,998.92
2022-08-03T09:52:56.587Z,998.75
2022-08-03T09:53:58.510Z,998.56
2022-08-03T09:54:55.568Z,998.50
2022-08-03T09:56:36.451Z,998.48
2022-08-03T09:56:56.549Z,998.45
2022-08-03T09:57:55.539Z,998.39
2022-08-03T09:58:55.529Z,998.33
2022-08-03T10:00:04.767Z,998.40
2022-08-03T10:00:56.573Z,998.38
2022-08-03T10:01:55.498Z,998.38
2022-08-03T10:02:55.490Z,998.35
2022-08-03T10:04:04.099Z,998.37
2022-08-03T10:04:56.469Z,998.37
2022-08-03T10:05:59.519Z,998.32
2022-08-03T10:06:55.477Z,998.29
2022-08-03T10:07:55.448Z,998.31
2022-08-03T10:08:55.438Z,998.26
2022-08-03T10:09:55.413Z,998.25
2022-08-03T10:10:55.420Z,998.30
2022-08-03T10:11:55.393Z,998.26
2022-08-03T10:12:55.420Z,998.29
2022-08-03T10:14:01.327Z,998.28
2022-08-03T10:14:56.383Z,998.19
2022-08-03T10:16:22.504Z,998.18
2022-08-03T10:16:56.347Z,998.19
2022-08-03T10:17:55.335Z,998.18
2022-08-03T10:18:55.346Z,998.19
2022-08-03T10:19:55.313Z,998.20
2022-08-03T10:20:55.306Z,998.13
2022-08-03T10:21:55.286Z,998.16
2022-08-03T10:22:55.284Z,998.12
2022-08-03T10:23:55.267Z,998.17
2022-08-03T10:24:55.277Z,998.15
2022-08-03T10:25:55.246Z,998.14
2022-08-03T10:26:55.237Z,998.10
2022-08-03T10:27:55.229Z,998.14
2022-08-03T10:28:55.216Z,998.07
2022-08-03T10:29:55.227Z,998.14
2022-08-03T10:30:55.274Z,998.14
2022-08-03T10:31:58.167Z,998.05
2022-08-03T10:32:55.170Z,998.02
2022-08-03T10:33:55.158Z,997.99
2022-08-03T10:34:59.934Z,998.03
2022-08-03T10:35:56.160Z,998.00
2022-08-03T10:36:55.150Z,998.03
2022-08-03T10:37:57.146Z,997.98
2022-08-03T10:38:55.130Z,998.02
2022-08-03T10:39:55.091Z,997.92
2022-08-03T10:40:58.933Z,998.00
2022-08-03T10:41:55.093Z,997.93
2022-08-03T10:42:55.062Z,997.91
2022-08-03T10:43:55.042Z,997.96
2022-08-03T10:44:55.033Z,997.95
2022-08-03T10:45:55.023Z,997.92
2022-08-03T10:46:55.023Z,997.90
2022-08-03T10:47:55.052Z,997.89
2022-08-03T10:48:55.051Z,997.84
2022-08-03T10:49:55.047Z,997.84
2022-08-03T10:50:54.974Z,997.82
2022-08-03T10:51:54.962Z,997.83
2022-08-03T10:52:54.954Z,997.81
2022-08-03T10:53:55.766Z,997.82
2022-08-03T10:54:54.935Z,997.84
2022-08-03T10:55:54.930Z,997.87
2022-08-03T10:56:54.905Z,997.84
2022-08-03T10:57:56.200Z,997.83
2022-08-03T10:58:57.602Z,997.78
2022-08-03T10:59:54.875Z,997.80
2022-08-03T11:00:54.966Z,997.78
2022-08-03T11:01:58.233Z,997.80
2022-08-03T11:02:54.838Z,997.68
2022-08-03T11:03:54.828Z,997.75
2022-08-03T11:04:55.310Z,997.79
2022-08-03T11:05:54.809Z,997.75
2022-08-03T11:06:54.802Z,997.76
2022-08-03T11:07:54.806Z,997.73
2022-08-03T11:08:54.789Z,997.70
2022-08-03T11:09:54.791Z,997.67
2022-08-03T11:10:54.778Z,997.64
2022-08-03T11:11:54.751Z,997.69
2022-08-03T11:12:54.746Z,997.66
2022-08-03T11:13:54.732Z,997.62
2022-08-03T11:14:54.719Z,997.68
2022-08-03T11:15:59.737Z,997.68
2022-08-03T11:16:55.691Z,997.70
2022-08-03T11:17:55.933Z,997.71
2022-08-03T11:18:54.671Z,997.62
2022-08-03T11:19:57.477Z,997.59
2022-08-03T11:20:54.665Z,997.54
2022-08-03T11:21:54.664Z,997.65
2022-08-03T11:22:54.690Z,997.59
2022-08-03T11:24:04.082Z,997.65
2022-08-03T11:24:55.612Z,997.62
2022-08-03T11:25:55.456Z,997.59
2022-08-03T11:26:54.583Z,997.57
2022-08-03T11:27:54.594Z,997.61
2022-08-03T11:28:54.564Z,997.59
2022-08-03T11:29:54.557Z,997.55
2022-08-03T11:30:54.558Z,997.57
2022-08-03T11:31:54.534Z,997.58
2022-08-03T11:32:54.566Z,997.59
2022-08-03T11:33:54.508Z,997.56
2022-08-03T11:34:54.499Z,997.57
2022-08-03T11:35:54.487Z,997.58
2022-08-03T11:36:54.486Z,997.52
2022-08-03T11:38:03.194Z,997.53
2022-08-03T11:38:55.503Z,997.56
2022-08-03T11:39:54.449Z,997.49
2022-08-03T11:40:54.445Z,997.52
2022-08-03T11:41:54.438Z,997.49
2022-08-03T11:42:54.420Z,997.48
2022-08-03T11:43:54.408Z,997.50
2022-08-03T11:44:54.423Z,997.47
2022-08-03T11:45:54.386Z,997.50
2022-08-03T11:46:54.379Z,997.53
2022-08-03T11:47:54.369Z,997.52
2022-08-03T11:48:54.427Z,997.59
2022-08-03T11:49:54.350Z,997.51
2022-08-03T11:50:54.390Z,997.59
2022-08-03T11:51:54.330Z,997.56
2022-08-03T11:52:54.321Z,997.59
2022-08-03T11:53:54.313Z,997.57
2022-08-03T11:54:57.213Z,997.52
2022-08-03T11:55:54.285Z,997.54
2022-08-03T11:56:54.292Z,997.47
2022-08-03T11:59:01.582Z,997.46
2022-08-03T11:59:10.876Z,997.45
2022-08-03T11:59:55.251Z,997.53
2022-08-03T12:00:54.233Z,997.48
2022-08-03T12:01:54.267Z,997.40
2022-08-03T12:02:54.231Z,997.48
2022-08-03T12:03:54.199Z,997.48
2022-08-03T12:04:54.195Z,997.42
2022-08-03T12:05:54.811Z,997.39
2022-08-03T12:06:54.179Z,997.47
2022-08-03T12:08:04.458Z,997.49
2022-08-03T12:08:56.046Z,997.40
2022-08-03T12:09:54.137Z,997.39
2022-08-03T12:10:54.149Z,997.37
2022-08-03T12:12:00.415Z,997.38
2022-08-03T12:12:55.137Z,997.46
2022-08-03T12:14:10.447Z,997.46
2022-08-03T12:14:55.098Z,997.42
2022-08-03T12:15:54.078Z,997.44
2022-08-03T12:16:54.082Z,997.37
2022-08-03T12:17:57.710Z,997.39
2022-08-03T12:18:54.069Z,997.40
2022-08-03T12:19:54.039Z,997.43
2022-08-03T12:20:54.039Z,997.39
2022-08-03T12:21:56.553Z,997.34
2022-08-03T12:22:54.011Z,997.37
2022-08-03T12:23:54.019Z,997.34
2022-08-03T12:24:53.990Z,997.32
2022-08-03T12:25:53.981Z,997.30
2022-08-03T12:26:59.439Z,997.26
2022-08-03T12:27:54.965Z,997.31